Time;durP1;ratioP1;P1;durP2;ratioP2;P2;SDS_P1;SDS_P2;PMS_P1;PMS_P2;Temp;Humidity;BMP_temperature;BMP_pressure;BME280_temperature;BME280_humidity;BME280_pressure;Samples;Min_cycle;Max_cycle;Signal;HPM_P1;HPM_P2
2022/07/09 00:00:32;;;;;;;;;7.67;7.67;;;;;20.65;56.27;102395.66;5059714;28;45414;-75
2022/07/09 00:02:57;;;;;;;;;7.33;7.33;;;;;20.61;56.70;102403.31;5059817;28;45158;-75
2022/07/09 00:05:23;;;;;;;;;7.33;7.00;;;;;20.53;57.05;102401.59;5059717;28;45402;-75
2022/07/09 00:07:48;;;;;;;;;9.00;7.00;;;;;20.46;56.99;102402.59;5059530;28;45534;-75
2022/07/09 00:10:13;;;;;;;;;9.67;7.00;;;;;20.44;56.69;102398.25;5019747;28;1136790;-75
2022/07/09 00:12:39;;;;;;;;;6.00;6.00;;;;;20.42;57.15;102404.88;5060904;28;45257;-75
2022/07/09 00:15:05;;;;;;;;;5.33;5.33;;;;;20.39;56.91;102406.13;5060844;28;45304;-75
2022/07/09 00:17:31;;;;;;;;;8.67;5.00;;;;;20.33;57.63;102398.81;5069590;28;45393;-75
2022/07/09 00:19:57;;;;;;;;;5.00;5.00;;;;;20.32;57.50;102397.13;5060582;28;46463;-76
2022/07/09 00:22:22;;;;;;;;;7.00;6.00;;;;;20.27;57.36;102397.75;5057472;28;45324;-75
2022/07/09 00:24:47;;;;;;;;;6.00;6.00;;;;;20.25;57.58;102390.88;5060729;28;45353;-75
2022/07/09 00:27:13;;;;;;;;;5.00;5.00;;;;;20.24;57.65;102392.75;5060340;28;45751;-75
2022/07/09 00:29:38;;;;;;;;;5.33;5.00;;;;;20.22;57.77;102385.88;5060549;28;45327;-75
2022/07/09 00:32:04;;;;;;;;;4.00;4.00;;;;;20.24;58.19;102392.75;5060417;28;45343;-75
2022/07/09 00:34:29;;;;;;;;;4.67;4.67;;;;;20.21;58.04;102387.75;5060754;28;45428;-76
2022/07/09 00:36:55;;;;;;;;;10.00;9.00;;;;;20.19;58.27;102381.72;5060012;28;45354;-75
2022/07/09 00:39:20;;;;;;;;;6.33;6.33;;;;;20.17;58.77;102372.97;5055879;28;47207;-75
2022/07/09 00:41:45;;;;;;;;;7.00;7.00;;;;;20.18;58.43;102372.78;5042309;28;45977;-75
2022/07/09 00:44:11;;;;;;;;;7.00;5.67;;;;;20.21;58.61;102379.66;5060089;28;45343;-76
2022/07/09 00:46:36;;;;;;;;;5.00;5.00;;;;;20.18;58.49;102374.66;5060407;28;45581;-76
2022/07/09 00:49:03;;;;;;;;;4.33;4.33;;;;;20.17;58.59;102371.09;5060133;28;45514;-75
2022/07/09 00:51:30;;;;;;;;;4.00;4.00;;;;;20.14;58.66;102371.50;5060082;28;45352;-75
2022/07/09 00:53:57;;;;;;;;;4.00;4.00;;;;;20.12;58.80;102376.28;5060214;28;45367;-75
2022/07/09 00:56:23;;;;;;;;;5.00;4.67;;;;;20.12;58.68;102372.75;5059946;28;45298;-75
2022/07/09 00:58:50;;;;;;;;;4.00;4.00;;;;;20.09;58.85;102370.44;5048055;28;47126;-75
2022/07/09 01:01:16;;;;;;;;;4.33;4.00;;;;;20.09;58.87;102373.97;5059856;28;45431;-75
2022/07/09 01:03:41;;;;;;;;;3.00;3.00;;;;;20.05;58.62;102378.94;5060159;28;45342;-75
2022/07/09 01:06:07;;;;;;;;;3.00;3.00;;;;;20.04;58.70;102366.47;5059949;28;45461;-75
2022/07/09 01:08:32;;;;;;;;;4.33;4.33;;;;;20.02;58.98;102363.13;5038334;28;47695;-76
2022/07/09 01:10:59;;;;;;;;;6.33;6.33;;;;;20.02;59.13;102367.72;5029892;28;45934;-76
2022/07/09 01:13:25;;;;;;;;;7.33;5.67;;;;;19.97;59.14;102365.59;5039810;28;45274;-75
2022/07/09 01:15:50;;;;;;;;;8.67;8.67;;;;;19.98;59.26;102375.34;5041746;28;45367;-75
2022/07/09 01:18:15;;;;;;;;;6.67;6.33;;;;;19.97;59.82;102362.88;5043848;28;45330;-75
2022/07/09 01:20:41;;;;;;;;;5.00;5.00;;;;;19.95;59.44;102351.44;5039702;28;45269;-75
2022/07/09 01:23:07;;;;;;;;;5.00;5.00;;;;;19.93;59.60;102351.63;5048449;28;45420;-75
2022/07/09 01:25:39;;;;;;;;;6.33;4.67;;;;;19.89;60.01;102344.13;5039431;28;45357;-75
2022/07/09 01:28:07;;;;;;;;;6.00;6.00;;;;;19.85;59.65;102353.66;5039305;28;45418;-75
2022/07/09 01:30:34;;;;;;;;;5.00;3.67;;;;;19.86;59.99;102358.03;5037933;28;45486;-75
2022/07/09 01:33:00;;;;;;;;;4.00;4.00;;;;;19.87;59.87;102355.13;5039440;28;45473;-75
2022/07/09 01:35:25;;;;;;;;;6.00;5.33;;;;;19.84;60.40;102354.69;5039133;28;45261;-75
2022/07/09 01:37:51;;;;;;;;;6.00;6.00;;;;;19.78;60.25;102351.75;5039380;28;45406;-76
2022/07/09 01:40:16;;;;;;;;;6.00;6.00;;;;;19.77;60.42;102360.88;5039401;28;45320;-76
2022/07/09 01:42:42;;;;;;;;;6.67;4.67;;;;;19.77;60.46;102358.19;5039541;28;45307;-75
2022/07/09 01:45:07;;;;;;;;;4.67;4.67;;;;;19.70;60.31;102349.22;5038094;28;46096;-76
2022/07/09 01:47:33;;;;;;;;;5.00;5.00;;;;;19.63;60.30;102332.16;5053244;28;47420;-75
2022/07/09 01:49:58;;;;;;;;;6.00;5.67;;;;;19.67;60.46;102345.03;5039239;28;45221;-75
2022/07/09 01:52:24;;;;;;;;;6.67;6.00;;;;;19.63;60.59;102343.75;5038919;28;45579;-76
2022/07/09 01:54:50;;;;;;;;;5.00;5.00;;;;;19.61;60.85;102339.59;5038892;28;45656;-75
2022/07/09 01:57:15;;;;;;;;;5.33;5.33;;;;;19.58;60.59;102340.00;5037643;28;46485;-76
2022/07/09 01:59:40;;;;;;;;;5.67;5.67;;;;;19.55;60.71;102335.84;5050752;28;45396;-75
2022/07/09 02:02:05;;;;;;;;;4.00;4.00;;;;;19.52;60.90;102336.22;5043182;28;45360;-75
2022/07/09 02:04:32;;;;;;;;;5.33;5.00;;;;;19.50;61.17;102332.88;5038771;28;45569;-75
2022/07/09 02:06:57;;;;;;;;;5.00;5.00;;;;;19.48;61.12;102340.34;5038727;28;45379;-75
2022/07/09 02:09:22;;;;;;;;;4.67;4.67;;;;;19.43;61.27;102332.84;5041345;28;45391;-75
2022/07/09 02:11:49;;;;;;;;;5.67;4.67;;;;;19.36;61.51;102327.38;5055993;28;45834;-75
2022/07/09 02:14:14;;;;;;;;;6.33;6.33;;;;;19.35;61.77;102324.88;5040998;28;46416;-75
2022/07/09 02:16:39;;;;;;;;;5.00;5.00;;;;;19.26;61.65;102327.72;5065234;28;47676;-75
2022/07/09 02:19:06;;;;;;;;;6.00;6.00;;;;;19.22;62.04;102331.84;5041118;28;45557;-75
2022/07/09 02:21:32;;;;;;;;;5.33;5.33;;;;;19.22;62.33;102336.38;5058866;28;45428;-75
2022/07/09 02:23:58;;;;;;;;;6.00;6.00;;;;;19.13;61.88;102331.09;5058582;28;45487;-75
2022/07/09 02:26:25;;;;;;;;;5.00;5.00;;;;;19.12;62.35;102328.59;5058726;28;45355;-75
2022/07/09 02:28:51;;;;;;;;;6.67;5.00;;;;;19.16;62.14;102338.81;5055117;28;45448;-75
2022/07/09 02:31:17;;;;;;;;;6.00;5.33;;;;;19.11;62.31;102340.41;5058763;28;45501;-75
2022/07/09 02:33:42;;;;;;;;;6.33;6.33;;;;;19.07;62.65;102331.03;5058555;28;45425;-75
2022/07/09 02:36:07;;;;;;;;;6.67;6.67;;;;;19.08;62.67;102335.41;5040335;28;46817;-75
2022/07/09 02:38:33;;;;;;;;;2.33;2.33;;;;;18.98;62.58;102330.31;5040273;28;45834;-75
2022/07/09 02:40:58;;;;;;;;;5.00;5.00;;;;;18.95;63.12;102334.25;5058844;28;45685;-75
2022/07/09 02:43:24;;;;;;;;;7.67;7.67;;;;;18.89;63.01;102325.03;5058622;28;45498;-75
2022/07/09 02:45:51;;;;;;;;;7.33;7.00;;;;;18.86;63.40;102328.13;5058456;28;46429;-75
2022/07/09 02:48:16;;;;;;;;;7.00;7.00;;;;;18.83;63.40;102331.22;5058589;28;45303;-75
2022/07/09 02:50:41;;;;;;;;;7.67;7.67;;;;;18.83;63.23;102333.06;5058312;28;45253;-75
2022/07/09 02:53:07;;;;;;;;;5.67;5.67;;;;;18.76;63.29;102319.53;5058191;28;47596;-75
2022/07/09 02:55:32;;;;;;;;;7.67;6.67;;;;;18.71;63.60;102313.88;5058560;28;45283;-75
2022/07/09 02:57:57;;;;;;;;;6.00;6.00;;;;;18.72;63.99;102319.09;5058471;28;45265;-76
2022/07/09 03:00:23;;;;;;;;;5.00;5.00;;;;;18.70;64.21;102315.75;5058612;28;45490;-76
2022/07/09 03:02:48;;;;;;;;;8.00;7.33;;;;;18.68;63.74;102315.13;5059871;28;45446;-75
2022/07/09 03:05:13;;;;;;;;;6.00;6.00;;;;;18.69;63.94;102319.47;5061757;28;50291;-75
2022/07/09 03:07:39;;;;;;;;;7.33;6.00;;;;;18.61;64.11;102315.03;5061683;28;45287;-75
2022/07/09 03:10:04;;;;;;;;;6.00;5.67;;;;;18.61;63.90;102312.34;5061704;28;45335;-75
2022/07/09 03:12:30;;;;;;;;;6.33;6.00;;;;;18.62;64.39;102313.19;5061831;28;45259;-75
2022/07/09 03:14:55;;;;;;;;;6.00;6.00;;;;;18.58;64.44;102310.03;5061641;28;47688;-75
2022/07/09 03:17:20;;;;;;;;;7.00;7.00;;;;;18.52;64.54;102311.63;5068193;28;45280;-75
2022/07/09 03:19:46;;;;;;;;;7.33;6.33;;;;;18.52;65.08;102321.53;5061826;28;45800;-75
2022/07/09 03:22:12;;;;;;;;;7.33;7.33;;;;;18.51;65.12;102328.81;5061371;28;45549;-75
2022/07/09 03:24:37;;;;;;;;;7.67;7.67;;;;;18.49;65.39;102330.00;5043154;28;47461;-75
2022/07/09 03:27:02;;;;;;;;;10.00;7.67;;;;;18.44;65.53;102325.19;5061442;28;45411;-75
2022/07/09 03:29:28;;;;;;;;;8.33;7.33;;;;;18.47;65.38;102330.19;5040209;28;45427;-75
2022/07/09 03:31:53;;;;;;;;;5.00;5.00;;;;;18.45;65.29;102337.63;5057131;28;45513;-75
2022/07/09 03:34:18;;;;;;;;;10.00;10.00;;;;;18.42;65.55;102330.78;5061346;28;46131;-75
2022/07/09 03:36:44;;;;;;;;;9.33;9.33;;;;;18.39;65.70;102331.16;5053280;28;45347;-75
2022/07/09 03:39:09;;;;;;;;;7.00;7.00;;;;;18.35;65.46;102329.00;5043001;28;45372;-75
2022/07/09 03:41:35;;;;;;;;;8.33;8.33;;;;;18.37;65.88;102343.09;5060992;28;45493;-76
2022/07/09 03:44:00;;;;;;;;;7.00;7.00;;;;;18.31;65.49;102327.72;5061016;28;46630;-75
2022/07/09 03:46:25;;;;;;;;;9.00;9.00;;;;;18.30;65.62;102329.56;5061266;28;45412;-75
2022/07/09 03:48:51;;;;;;;;;8.00;8.00;;;;;18.32;65.99;102345.53;5061251;28;45334;-75
2022/07/09 03:51:16;;;;;;;;;10.33;9.33;;;;;18.25;65.92;102338.19;5047060;28;46039;-75
2022/07/09 03:53:42;;;;;;;;;8.33;8.33;;;;;18.22;66.10;102340.41;5039357;28;47379;-75
2022/07/09 03:56:07;;;;;;;;;8.00;8.00;;;;;18.22;66.26;102340.41;5038131;28;45568;-75
2022/07/09 03:58:32;;;;;;;;;7.67;7.67;;;;;18.16;65.99;102326.69;5061183;28;45256;-75
2022/07/09 04:00:58;;;;;;;;;7.00;7.00;;;;;18.15;66.58;102334.97;5052635;28;46245;-75
2022/07/09 04:03:23;;;;;;;;;7.67;7.67;;;;;18.12;66.64;102335.34;5060723;28;45420;-75
2022/07/09 04:05:48;;;;;;;;;7.00;7.00;;;;;18.10;66.81;102348.09;5060702;28;45272;-75
2022/07/09 04:08:14;;;;;;;;;10.00;8.33;;;;;18.09;66.74;102343.75;5060754;28;45271;-75
2022/07/09 04:10:39;;;;;;;;;7.67;7.67;;;;;18.07;66.96;102343.09;5060818;28;45413;-75
2022/07/09 04:13:04;;;;;;;;;6.33;6.33;;;;;18.08;66.85;102350.97;5060077;28;45493;-75
2022/07/09 04:15:32;;;;;;;;;10.00;9.00;;;;;18.01;67.22;102345.50;5060061;28;45331;-75
2022/07/09 04:17:57;;;;;;;;;8.33;8.33;;;;;18.01;66.94;102345.50;5067646;28;45482;-75
2022/07/09 04:20:24;;;;;;;;;8.00;8.00;;;;;18.02;67.24;102359.81;5060228;28;45259;-75
2022/07/09 04:22:49;;;;;;;;;10.33;9.00;;;;;17.96;67.17;102352.47;5044357;28;46018;-76
2022/07/09 04:25:15;;;;;;;;;7.33;7.00;;;;;18.00;67.43;102361.84;5060661;28;45429;-75
2022/07/09 04:27:40;;;;;;;;;10.00;9.00;;;;;17.94;67.52;102351.81;5060407;28;45288;-75
2022/07/09 04:30:08;;;;;;;;;10.00;8.00;;;;;17.94;67.35;102363.41;5042155;28;47281;-75
2022/07/09 04:32:34;;;;;;;;;10.00;8.33;;;;;17.88;67.52;102362.28;5042545;28;45384;-75
2022/07/09 04:34:59;;;;;;;;;10.00;9.33;;;;;17.88;67.85;102356.91;5060536;28;45335;-76
2022/07/09 04:37:25;;;;;;;;;8.00;7.00;;;;;17.88;67.95;102364.97;5060103;28;45266;-75
2022/07/09 04:39:50;;;;;;;;;7.33;7.00;;;;;17.88;67.89;102354.22;5042086;28;45465;-75
2022/07/09 04:42:15;;;;;;;;;7.33;7.33;;;;;17.86;67.94;102356.25;5052164;28;47135;-75
2022/07/09 04:44:42;;;;;;;;;9.00;8.67;;;;;17.84;68.40;102354.78;5060362;28;45426;-75
2022/07/09 04:47:09;;;;;;;;;5.00;5.00;;;;;17.85;68.49;102361.81;5060030;28;45477;-74
2022/07/09 04:49:34;;;;;;;;;9.33;9.33;;;;;17.89;68.35;102363.09;5060093;28;45583;-75
2022/07/09 04:51:59;;;;;;;;;6.00;6.00;;;;;17.89;68.32;102360.41;5059755;28;45394;-75
2022/07/09 04:54:24;;;;;;;;;6.67;6.67;;;;;17.83;68.63;102355.78;5059827;28;45403;-75
2022/07/09 04:56:50;;;;;;;;;8.67;8.00;;;;;17.85;68.63;102359.13;5060302;28;45344;-75
2022/07/09 04:59:15;;;;;;;;;12.00;12.00;;;;;17.84;69.03;102363.66;5041855;28;46068;-75
2022/07/09 05:01:40;;;;;;;;;8.00;8.00;;;;;17.89;68.64;102363.97;5053593;28;45379;-75
2022/07/09 05:04:06;;;;;;;;;7.00;7.00;;;;;17.92;69.16;102360.06;5048841;28;45440;-75
2022/07/09 05:06:31;;;;;;;;;8.67;8.00;;;;;17.94;68.85;102354.50;5048319;28;45328;-74
2022/07/09 05:08:56;;;;;;;;;7.33;7.33;;;;;17.96;68.98;102355.16;5059743;28;45422;-75
2022/07/09 05:11:22;;;;;;;;;9.00;9.00;;;;;18.00;69.12;102357.28;5059440;28;51534;-75
2022/07/09 05:13:47;;;;;;;;;7.00;7.00;;;;;18.00;68.70;102353.75;5050533;28;45293;-76
2022/07/09 05:16:13;;;;;;;;;34.33;30.33;;;;;18.03;68.52;102356.94;5042666;28;45285;-77
2022/07/09 05:18:38;;;;;;;;;12.33;10.00;;;;;18.05;69.07;102354.06;5046092;28;45347;-77
2022/07/09 05:21:04;;;;;;;;;9.33;9.33;;;;;18.05;69.21;102356.75;5059284;28;46563;-77
2022/07/09 05:23:29;;;;;;;;;7.67;7.67;;;;;18.00;69.40;102351.91;5041511;28;45292;-77
2022/07/09 05:25:54;;;;;;;;;7.00;6.67;;;;;17.98;69.21;102351.25;5059523;28;45427;-77
2022/07/09 05:28:20;;;;;;;;;8.00;8.00;;;;;17.98;69.59;102361.16;5059714;28;45485;-77
2022/07/09 05:30:45;;;;;;;;;8.33;8.33;;;;;18.00;69.37;102359.97;5059640;28;45332;-77
2022/07/09 05:33:11;;;;;;;;;11.50;11.50;;;;;18.02;69.61;102360.63;5052249;28;45632;-77
2022/07/09 05:35:36;;;;;;;;;9.00;9.00;;;;;18.03;69.51;102356.94;5059491;28;45430;-77
2022/07/09 05:38:02;;;;;;;;;7.00;6.00;;;;;18.11;69.39;102357.88;5057965;28;45672;-77
2022/07/09 05:40:27;;;;;;;;;9.67;9.33;;;;;18.16;70.26;102360.84;5039456;28;47398;-77
2022/07/09 05:42:53;;;;;;;;;9.33;9.00;;;;;18.24;69.46;102363.44;5039882;28;45395;-77
2022/07/09 05:45:18;;;;;;;;;10.00;9.00;;;;;18.23;69.57;102348.31;5040185;28;45417;-77
2022/07/09 05:47:44;;;;;;;;;10.00;8.00;;;;;18.32;70.05;102356.28;5040777;28;46798;-77
2022/07/09 05:50:10;;;;;;;;;11.67;10.67;;;;;18.39;69.58;102360.75;5058859;28;46574;-77
2022/07/09 05:52:35;;;;;;;;;9.33;8.67;;;;;18.39;69.20;102352.69;5041363;28;45406;-77
2022/07/09 05:55:03;;;;;;;;;9.67;9.67;;;;;18.54;69.16;102362.56;5044802;28;45619;-77
2022/07/09 05:57:28;;;;;;;;;11.00;11.00;;;;;18.58;69.22;102346.91;5059664;28;45536;-77
2022/07/09 05:59:54;;;;;;;;;11.67;10.67;;;;;18.63;69.34;102350.69;5059071;28;46288;-77
2022/07/09 06:02:19;;;;;;;;;9.00;9.00;;;;;18.77;69.36;102361.59;5059660;28;45265;-77
2022/07/09 06:04:45;;;;;;;;;10.67;10.00;;;;;18.86;68.87;102375.78;5041415;28;45564;-77
2022/07/09 06:07:10;;;;;;;;;12.00;11.00;;;;;18.94;69.23;102362.19;5041378;28;45885;-77
2022/07/09 06:09:35;;;;;;;;;12.33;11.00;;;;;19.01;68.98;102362.28;5058853;28;45393;-77
2022/07/09 06:12:00;;;;;;;;;12.00;11.00;;;;;19.08;68.33;102367.75;5041198;28;46023;-77
2022/07/09 06:14:26;;;;;;;;;13.00;12.00;;;;;19.17;67.83;102370.16;5059260;28;45402;-77
2022/07/09 06:16:51;;;;;;;;;13.00;13.00;;;;;19.22;67.68;102363.34;5047316;28;46414;-77
2022/07/09 06:19:17;;;;;;;;;15.67;14.33;;;;;19.28;67.92;102358.00;5059390;28;46506;-77
2022/07/09 06:21:42;;;;;;;;;12.00;12.00;;;;;19.38;67.57;102362.22;5040625;28;45694;-77
2022/07/09 06:24:07;;;;;;;;;13.33;12.33;;;;;19.42;68.03;102358.09;5041014;28;45835;-77
2022/07/09 06:26:33;;;;;;;;;12.33;12.00;;;;;19.50;67.82;102368.78;5059062;28;46805;-77
2022/07/09 06:28:59;;;;;;;;;11.00;11.00;;;;;19.57;67.46;102358.03;5037687;28;47655;-77
2022/07/09 06:31:25;;;;;;;;;13.67;13.67;;;;;19.65;67.60;102365.97;5050104;28;45298;-78
2022/07/09 06:33:50;;;;;;;;;14.00;14.00;;;;;19.71;66.98;102356.28;5058790;28;45340;-77
2022/07/09 06:36:15;;;;;;;;;12.33;11.00;;;;;19.79;67.02;102356.09;5059231;28;45375;-77
2022/07/09 06:41:24;;;;;;;;;13.33;13.33;;;;;19.93;66.40;102356.19;5062762;28;45381;-77
2022/07/09 06:43:50;;;;;;;;;14.00;13.67;;;;;19.98;66.23;102351.06;5049786;28;45460;-79
2022/07/09 06:46:15;;;;;;;;;13.50;13.50;;;;;20.09;66.48;102356.94;5063429;28;45635;-79
2022/07/09 06:48:40;;;;;;;;;15.67;15.67;;;;;20.18;65.94;102353.88;5062397;28;45515;-79
2022/07/09 06:51:06;;;;;;;;;14.33;14.33;;;;;20.22;65.85;102343.53;5062401;28;45379;-79
2022/07/09 06:53:31;;;;;;;;;14.00;13.67;;;;;20.27;65.80;102354.56;5044880;28;45445;-79
2022/07/09 06:55:56;;;;;;;;;14.00;14.00;;;;;20.33;65.70;102355.63;5062932;28;45497;-80
2022/07/09 06:58:22;;;;;;;;;14.67;14.33;;;;;20.40;65.77;102353.78;5062309;28;45324;-79
2022/07/09 07:00:47;;;;;;;;;16.00;16.00;;;;;20.49;65.60;102353.59;5041075;28;46082;-79
2022/07/09 07:03:12;;;;;;;;;12.00;11.00;;;;;20.62;65.38;102355.53;5059997;28;45233;-79
2022/07/09 07:05:38;;;;;;;;;13.67;13.67;;;;;20.66;65.01;102349.53;5062184;28;49940;-79
2022/07/09 07:08:03;;;;;;;;;12.00;12.00;;;;;20.77;64.94;102352.66;5061932;28;46253;-79
2022/07/09 07:10:29;;;;;;;;;12.33;12.33;;;;;20.83;65.16;102345.63;5048363;28;45345;-77
2022/07/09 07:12:55;;;;;;;;;14.67;14.67;;;;;20.94;64.87;102353.97;5062004;28;45307;-77
2022/07/09 07:15:20;;;;;;;;;14.67;14.33;;;;;21.01;64.49;102359.38;5061717;28;45273;-77
2022/07/09 07:17:47;;;;;;;;;13.67;12.00;;;;;21.10;64.12;102356.50;5058194;28;47276;-77
2022/07/09 07:20:12;;;;;;;;;13.33;12.33;;;;;21.16;64.44;102353.78;5061493;28;45372;-77
2022/07/09 07:22:37;;;;;;;;;14.00;13.67;;;;;21.15;64.39;102345.88;5050068;28;45379;-78
2022/07/09 07:25:03;;;;;;;;;13.33;11.33;;;;;21.31;63.95;102350.06;5061827;28;45248;-77
2022/07/09 07:27:28;;;;;;;;;15.67;15.67;;;;;21.33;63.86;102344.47;5061560;28;46262;-77
2022/07/09 07:29:54;;;;;;;;;13.00;12.00;;;;;21.43;63.91;102348.41;5061564;28;45332;-77
2022/07/09 07:32:19;;;;;;;;;13.00;12.67;;;;;21.53;63.36;102352.56;5059791;28;45470;-78
2022/07/09 07:34:44;;;;;;;;;13.67;13.33;;;;;21.59;63.23;102353.59;5043446;28;45789;-78
2022/07/09 07:37:10;;;;;;;;;10.00;10.00;;;;;21.64;63.95;102351.09;5061009;28;45345;-77
2022/07/09 07:39:35;;;;;;;;;11.33;11.33;;;;;21.78;62.84;102352.75;5061391;28;45359;-78
2022/07/09 07:42:00;;;;;;;;;12.67;12.67;;;;;21.88;63.26;102351.50;5061485;28;45367;-77
2022/07/09 07:44:26;;;;;;;;;12.67;11.00;;;;;21.90;63.11;102346.69;5061650;28;45321;-77
2022/07/09 07:46:51;;;;;;;;;11.67;11.00;;;;;22.05;62.59;102352.69;5043202;28;47634;-77
2022/07/09 07:49:17;;;;;;;;;14.00;13.00;;;;;22.16;62.46;102348.50;5060806;28;45331;-78
2022/07/09 07:51:43;;;;;;;;;14.67;13.00;;;;;22.22;62.53;102346.81;5029977;28;45390;-75
2022/07/09 07:54:08;;;;;;;;;13.00;12.00;;;;;22.30;61.58;102343.03;5052115;28;47073;-75
2022/07/09 07:56:36;;;;;;;;;9.00;9.00;;;;;22.39;61.80;102349.84;5042870;28;46920;-74
2022/07/09 07:59:01;;;;;;;;;12.67;12.67;;;;;22.48;61.60;102346.91;5061428;28;45249;-74
2022/07/09 08:01:27;;;;;;;;;15.00;14.00;;;;;22.56;61.11;102346.66;5042781;28;45368;-78
2022/07/09 08:03:52;;;;;;;;;11.67;11.67;;;;;22.65;60.75;102347.25;5042754;28;47202;-78
2022/07/09 08:06:17;;;;;;;;;11.67;11.33;;;;;22.73;60.47;102352.44;5060747;28;45629;-78
2022/07/09 08:08:43;;;;;;;;;11.00;11.00;;;;;22.74;59.65;102334.31;5039563;28;50887;-78
2022/07/09 08:11:08;;;;;;;;;11.33;11.33;;;;;22.85;59.56;102343.63;5049249;28;45371;-78
2022/07/09 08:13:33;;;;;;;;;14.00;13.67;;;;;22.94;59.73;102342.31;5059790;28;45344;-78
2022/07/09 08:16:01;;;;;;;;;11.00;11.00;;;;;23.01;59.56;102336.84;5052758;28;47400;-78
2022/07/09 08:18:27;;;;;;;;;9.00;9.00;;;;;23.12;59.67;102338.84;5064036;28;45386;-78
2022/07/09 08:20:52;;;;;;;;;10.33;10.33;;;;;23.16;57.75;102334.63;5042879;28;45301;-78
2022/07/09 08:23:18;;;;;;;;;11.00;11.00;;;;;23.26;57.96;102339.56;5060307;28;45315;-77
2022/07/09 08:25:43;;;;;;;;;10.33;10.33;;;;;23.40;58.32;102334.06;5046189;28;47279;-78
2022/07/09 08:28:08;;;;;;;;;10.00;9.33;;;;;23.50;57.82;102334.38;5060286;28;45385;-77
2022/07/09 08:30:33;;;;;;;;;9.33;9.33;;;;;23.60;57.04;102330.31;5059929;28;45420;-78
2022/07/09 08:32:59;;;;;;;;;8.00;7.33;;;;;23.70;56.45;102325.19;5060692;28;45257;-78
2022/07/09 08:35:25;;;;;;;;;8.00;8.00;;;;;23.78;55.42;102326.78;5060206;28;45455;-78
2022/07/09 08:37:51;;;;;;;;;7.67;7.67;;;;;23.82;56.07;102319.84;5060511;28;45327;-78
2022/07/09 08:40:16;;;;;;;;;8.00;8.00;;;;;23.94;55.82;102328.91;5060387;28;45161;-78
2022/07/09 08:42:42;;;;;;;;;10.00;10.00;;;;;24.04;55.73;102328.41;5045814;28;45626;-78
2022/07/09 08:45:12;;;;;;;;;11.00;8.67;;;;;24.11;55.24;102322.88;5060180;28;46303;-78
2022/07/09 08:47:38;;;;;;;;;8.67;8.67;;;;;24.21;54.72;102315.03;5060023;28;45323;-78
2022/07/09 08:50:04;;;;;;;;;7.67;7.67;;;;;24.28;54.25;102319.56;5042249;28;45182;-78
2022/07/09 08:52:29;;;;;;;;;8.33;8.00;;;;;24.33;53.98;102320.53;5042062;28;46254;-77
2022/07/09 08:54:55;;;;;;;;;10.00;8.00;;;;;24.43;53.33;102314.56;5060308;28;45257;-78
2022/07/09 08:57:20;;;;;;;;;8.00;8.00;;;;;24.48;52.66;102311.13;5060414;28;45356;-77
2022/07/09 08:59:46;;;;;;;;;8.33;7.67;;;;;24.54;52.49;102310.22;5059454;28;45458;-78
2022/07/09 09:02:13;;;;;;;;;7.00;7.00;;;;;24.63;52.98;102313.44;5060883;28;45289;-78
2022/07/09 09:04:39;;;;;;;;;8.00;8.00;;;;;24.68;52.24;102300.00;5059720;28;45606;-78
2022/07/09 09:07:21;;;;;;;;;9.00;8.00;;;;;24.75;52.30;102299.88;5041899;28;45720;-78
2022/07/09 09:09:47;;;;;;;;;8.00;7.67;;;;;24.84;52.13;102300.34;5059675;28;45243;-78
2022/07/09 09:12:13;;;;;;;;;8.00;8.00;;;;;24.92;51.78;102301.94;5059922;28;45354;-78
2022/07/09 09:14:39;;;;;;;;;6.00;6.00;;;;;25.03;50.96;102303.03;5060779;28;46346;-77
2022/07/09 09:17:11;;;;;;;;;6.33;6.33;;;;;25.09;50.71;102302.94;5067632;28;45327;-74
2022/07/09 09:19:38;;;;;;;;;6.33;6.33;;;;;25.16;49.79;102299.25;5060127;28;45297;-75
2022/07/09 09:22:04;;;;;;;;;6.67;6.67;;;;;25.20;50.62;102300.47;5059509;28;45305;-74
2022/07/09 09:24:29;;;;;;;;;7.00;7.00;;;;;25.28;50.09;102301.97;5059671;28;46550;-75
2022/07/09 09:26:59;;;;;;;;;6.00;6.00;;;;;25.36;49.27;102300.78;5041719;28;45273;-75
2022/07/09 09:29:26;;;;;;;;;5.67;5.67;;;;;25.39;48.62;102297.59;5060416;28;45345;-75
2022/07/09 09:31:52;;;;;;;;;6.33;6.33;;;;;25.39;48.16;102298.44;5053677;28;46232;-74
2022/07/09 09:34:18;;;;;;;;;6.00;6.00;;;;;25.46;48.41;102301.88;5038751;28;47154;-75
2022/07/09 09:36:45;;;;;;;;;8.00;7.00;;;;;25.52;48.53;102296.53;5034846;28;45394;-74
2022/07/09 09:39:18;;;;;;;;;6.00;6.00;;;;;25.57;47.94;102299.38;5058488;28;45378;-74
2022/07/09 09:41:48;;;;;;;;;6.00;6.00;;;;;25.64;48.38;102302.81;5059596;28;45324;-75
2022/07/09 09:44:17;;;;;;;;;8.67;8.67;;;;;25.75;48.43;102301.16;5041068;28;48530;-74
2022/07/09 09:46:44;;;;;;;;;6.00;6.00;;;;;25.88;48.06;102305.50;5059609;28;45382;-75
2022/07/09 09:49:10;;;;;;;;;7.00;7.00;;;;;25.93;47.67;102307.50;5059231;28;45275;-75
2022/07/09 09:51:50;;;;;;;;;7.00;7.00;;;;;25.98;47.74;102304.91;5059073;28;45927;-74
2022/07/09 09:54:17;;;;;;;;;7.00;6.00;;;;;26.05;46.21;102305.59;5059270;28;46493;-75
2022/07/09 09:56:43;;;;;;;;;7.00;7.00;;;;;26.10;47.06;102315.75;5059390;28;45458;-74
2022/07/09 09:59:10;;;;;;;;;6.00;6.00;;;;;26.17;46.73;102305.53;5059531;28;45358;-74
2022/07/09 10:01:35;;;;;;;;;5.67;5.67;;;;;26.26;46.63;102300.53;5058996;28;45339;-75
2022/07/09 10:04:01;;;;;;;;;7.00;6.00;;;;;26.30;46.59;102309.06;5059190;28;46210;-74
2022/07/09 10:06:27;;;;;;;;;6.00;6.00;;;;;26.38;45.36;102307.84;5058864;28;45363;-75
2022/07/09 10:08:54;;;;;;;;;6.00;5.33;;;;;26.37;45.71;102296.13;5059343;28;45395;-75
2022/07/09 10:11:20;;;;;;;;;5.67;5.67;;;;;26.36;45.75;102294.47;5052845;28;47488;-76
2022/07/09 10:13:54;;;;;;;;;6.00;4.00;;;;;26.47;45.79;102303.66;5041111;28;47713;-75
2022/07/09 10:16:31;;;;;;;;;7.00;6.33;;;;;26.60;45.76;102303.34;5062320;28;45380;-75
2022/07/09 10:18:57;;;;;;;;;5.00;5.00;;;;;26.73;45.57;102298.66;5035951;28;45257;-76
2022/07/09 10:21:34;;;;;;;;;5.33;5.33;;;;;26.87;45.03;102282.78;5062531;28;45355;-75
2022/07/09 10:23:59;;;;;;;;;6.00;6.00;;;;;27.07;45.26;102287.78;5031018;28;47139;-77
2022/07/09 10:26:46;;;;;;;;;6.33;6.33;;;;;27.22;44.57;102275.44;5054562;28;45375;-78
2022/07/09 10:29:26;;;;;;;;;7.33;6.00;;;;;27.41;43.68;102286.09;5063600;28;45374;-78
2022/07/09 10:31:53;;;;;;;;;5.00;5.00;;;;;27.53;43.47;102294.16;5044854;28;46065;-77
2022/07/09 10:34:36;;;;;;;;;6.00;6.00;;;;;27.66;43.24;102284.78;5062816;28;45393;-77
2022/07/09 10:37:04;;;;;;;;;4.00;4.00;;;;;27.82;41.96;102281.19;5062239;28;45257;-75
2022/07/09 10:39:30;;;;;;;;;4.67;4.00;;;;;27.95;42.43;102277.22;5062648;28;45332;-75
2022/07/09 10:42:03;;;;;;;;;5.00;5.00;;;;;28.14;41.14;102276.88;5062177;28;45331;-74
2022/07/09 10:44:40;;;;;;;;;4.33;4.33;;;;;28.40;41.58;102271.69;5062186;28;46305;-78
2022/07/09 10:47:05;;;;;;;;;4.67;4.67;;;;;28.58;41.33;102261.47;5062269;28;45324;-78
2022/07/09 10:49:34;;;;;;;;;4.00;4.00;;;;;28.72;41.36;102250.91;5040906;28;45309;-78
2022/07/09 10:52:00;;;;;;;;;6.00;4.67;;;;;28.84;41.64;102248.81;5037522;28;47168;-75
2022/07/09 10:54:26;;;;;;;;;5.00;5.00;;;;;29.05;40.56;102265.41;5061996;28;45350;-74
2022/07/09 10:56:53;;;;;;;;;3.67;3.33;;;;;29.19;40.15;102262.19;5062301;28;45411;-74
2022/07/09 10:59:19;;;;;;;;;5.00;5.00;;;;;29.27;39.94;102247.19;5062319;28;45470;-75
2022/07/09 11:01:44;;;;;;;;;4.33;4.33;;;;;29.23;39.08;102252.34;5061989;28;45334;-74
2022/07/09 11:04:13;;;;;;;;;6.67;6.67;;;;;29.30;39.59;102243.94;5061974;28;46303;-74
2022/07/09 11:06:45;;;;;;;;;2.67;2.67;;;;;29.51;39.25;102257.72;5061693;28;45355;-75
2022/07/09 11:09:15;;;;;;;;;4.67;4.67;;;;;29.67;39.21;102244.91;5061819;28;45348;-75
2022/07/09 11:11:44;;;;;;;;;5.33;5.33;;;;;29.91;38.63;102249.91;5043545;28;46331;-75
2022/07/09 11:14:10;;;;;;;;;3.00;3.00;;;;;30.09;37.79;102232.97;5061725;28;45448;-75
2022/07/09 11:16:36;;;;;;;;;4.00;4.00;;;;;30.32;38.08;102247.25;5068476;28;45487;-74
2022/07/09 11:19:21;;;;;;;;;5.00;5.00;;;;;30.56;37.21;102243.97;5048606;28;45383;-79